Time;durP1;ratioP1;P1;durP2;ratioP2;P2;SDS_P1;SDS_P2;PMS_P1;PMS_P2;Temp;Humidity;BMP_temperature;BMP_pressure;BME280_temperature;BME280_humidity;BME280_pressure;Samples;Min_cycle;Max_cycle;Signal;HPM_P1;HPM_P2
2022/08/16 00:00:44;;;;;;;11.20;4.50;;;;;;;19.96;80.58;98168.30;104783;1273;62517;-19
2022/08/16 00:03:11;;;;;;;9.20;4.90;;;;;;;20.15;79.80;98164.83;104865;1273;61586;-19
2022/08/16 00:05:41;;;;;;;7.70;4.90;;;;;;;20.49;78.00;98160.08;104661;1275;75703;-18
2022/08/16 00:08:16;;;;;;;9.20;5.20;;;;;;;20.44;77.89;98160.11;104850;1273;74001;-19
2022/08/16 00:11:07;;;;;;;8.50;4.90;;;;;;;20.05;79.49;98160.30;104592;1273;74700;-19
2022/08/16 00:13:43;;;;;;;6.00;3.70;;;;;;;19.92;80.05;98158.64;104845;1273;62671;-19
2022/08/16 00:16:22;;;;;;;8.10;4.20;;;;;;;20.21;78.57;98153.38;104744;1274;61155;-19
2022/08/16 00:19:11;;;;;;;12.30;4.70;;;;;;;20.28;78.08;98151.00;104997;1273;75901;-19
2022/08/16 00:21:41;;;;;;;9.70;4.50;;;;;;;20.30;77.83;98149.77;104996;1273;76002;-19
2022/08/16 00:24:08;;;;;;;8.50;4.50;;;;;;;20.13;78.70;98156.05;104748;1273;74387;-19
2022/08/16 00:26:40;;;;;;;9.10;5.00;;;;;;;19.94;79.34;98158.63;104743;1273;62360;-19
2022/08/16 00:29:13;;;;;;;8.20;4.00;;;;;;;19.79;79.89;98152.10;105018;1273;61520;-19
2022/08/16 00:31:44;;;;;;;7.80;4.40;;;;;;;20.23;78.31;98151.02;104912;1273;75317;-19
2022/08/16 00:34:28;;;;;;;8.90;4.30;;;;;;;20.63;75.98;98145.61;104746;1273;76416;-19
2022/08/16 00:37:15;;;;;;;5.30;4.00;;;;;;;20.66;75.62;98141.98;104784;1273;74268;-19
2022/08/16 00:39:45;;;;;;;7.20;4.70;;;;;;;20.47;76.01;98147.56;104480;1273;62024;-19
2022/08/16 00:42:14;;;;;;;6.70;4.40;;;;;;;20.17;77.41;98147.74;104846;1273;61053;-19
2022/08/16 00:45:26;;;;;;;7.40;3.60;;;;;;;20.13;77.17;98145.00;104577;1273;73765;-18
2022/08/16 00:47:53;;;;;;;5.30;3.60;;;;;;;20.79;75.74;98144.46;104726;1273;75929;-19
2022/08/16 00:50:24;;;;;;;5.80;3.40;;;;;;;21.12;73.85;98140.99;104646;1273;74471;-19
2022/08/16 00:53:07;;;;;;;6.10;3.90;;;;;;;21.00;73.76;98135.96;104671;1273;62132;-19
2022/08/16 00:55:36;;;;;;;10.00;4.10;;;;;;;20.71;74.55;98138.28;104918;1273;60979;-19
2022/08/16 00:58:04;;;;;;;4.80;4.10;;;;;;;20.41;75.19;98139.05;104666;1273;74588;-19
2022/08/16 01:00:39;;;;;;;9.80;4.40;;;;;;;20.13;76.16;98138.17;104964;1273;74948;-18
2022/08/16 01:03:09;;;;;;;6.20;3.30;;;;;;;19.97;76.65;98134.80;105064;1273;74973;-19
2022/08/16 01:05:39;;;;;;;5.20;3.30;;;;;;;20.43;76.21;98135.09;104736;1276;61098;-19
2022/08/16 01:08:07;;;;;;;11.90;4.20;;;;;;;20.90;74.28;98128.08;104899;1273;61077;-19
2022/08/16 01:10:54;;;;;;;8.30;4.00;;;;;;;20.83;73.83;98133.14;104388;1274;75763;-19
2022/08/16 01:13:27;;;;;;;9.90;4.40;;;;;;;20.08;76.56;98139.64;104862;1272;76126;-19
2022/08/16 01:15:57;;;;;;;7.40;4.90;;;;;;;19.77;78.00;98140.36;104467;1273;74485;-19
2022/08/16 01:18:29;;;;;;;10.20;4.40;;;;;;;19.61;78.71;98141.66;104645;1274;61205;-18
2022/08/16 01:21:26;;;;;;;4.30;3.50;;;;;;;19.76;78.51;98140.09;104794;1274;61107;-19
2022/08/16 01:24:06;;;;;;;10.00;4.50;;;;;;;20.01;77.26;98140.36;104925;1274;75941;-19
2022/08/16 01:26:58;;;;;;;5.80;4.10;;;;;;;19.99;77.19;98132.23;104822;1274;76450;-19
2022/08/16 01:29:38;;;;;;;9.30;3.90;;;;;;;20.01;76.87;98126.61;104741;1273;74469;-19
2022/08/16 01:32:30;;;;;;;6.80;3.70;;;;;;;19.91;76.72;98119.98;104765;1275;61173;-19
2022/08/16 01:35:20;;;;;;;4.80;2.80;;;;;;;19.81;77.06;98107.85;104992;1274;61113;-19
2022/08/16 01:37:52;;;;;;;7.70;3.40;;;;;;;20.37;75.97;98104.66;104601;1274;75486;-19
2022/08/16 01:40:25;;;;;;;7.40;3.70;;;;;;;20.78;74.34;98098.17;104612;1274;75936;-18
2022/08/16 01:42:53;;;;;;;8.10;3.90;;;;;;;20.74;74.02;98091.91;104703;1277;74161;-19
2022/08/16 01:45:21;;;;;;;8.30;3.80;;;;;;;20.46;74.31;98089.93;104826;1273;61957;-19
2022/08/16 01:47:50;;;;;;;10.40;3.70;;;;;;;20.15;75.39;98095.55;104748;1273;61150;-19
2022/08/16 01:50:20;;;;;;;7.10;4.00;;;;;;;19.90;75.77;98091.86;104563;1275;75522;-18
2022/08/16 01:53:08;;;;;;;6.10;2.90;;;;;;;19.73;76.82;98088.45;104709;1274;74992;-19
2022/08/16 01:55:57;;;;;;;6.50;3.20;;;;;;;20.29;75.49;98078.52;104414;1273;72352;-19
2022/08/16 01:58:25;;;;;;;7.30;3.10;;;;;;;20.55;74.10;98072.42;104675;1273;62137;-19
2022/08/16 02:00:52;;;;;;;8.00;3.90;;;;;;;20.44;74.23;98069.20;104877;1273;61173;-19
2022/08/16 02:03:21;;;;;;;5.10;3.60;;;;;;;20.16;74.71;98059.69;105011;1273;74954;-19
2022/08/16 02:05:53;;;;;;;11.00;3.80;;;;;;;19.80;75.69;98054.95;104867;1274;76056;-19
2022/08/16 02:08:20;;;;;;;7.40;3.50;;;;;;;19.54;76.50;98049.55;104974;1273;74297;-19
2022/08/16 02:11:07;;;;;;;5.30;2.60;;;;;;;19.35;77.50;98044.16;105080;1274;63725;-18
2022/08/16 02:13:35;;;;;;;7.60;3.70;;;;;;;19.86;76.44;98041.68;104990;1273;61447;-19
2022/08/16 02:16:09;;;;;;;3.90;2.80;;;;;;;20.33;74.60;98030.77;104772;1276;74593;-19
2022/08/16 02:18:46;;;;;;;9.60;3.30;;;;;;;20.26;74.33;98023.08;104972;1273;75953;-19
2022/08/16 02:21:14;;;;;;;6.80;3.30;;;;;;;20.03;74.87;98020.52;104792;1274;73388;-19
2022/08/16 02:23:43;;;;;;;7.00;4.20;;;;;;;19.77;75.39;98015.05;104762;1274;61176;-19
2022/08/16 02:26:11;;;;;;;4.60;3.30;;;;;;;19.54;76.29;98012.70;104669;1274;61113;-18
2022/08/16 02:28:43;;;;;;;6.90;3.50;;;;;;;19.37;77.00;98010.91;104974;1273;75695;-19
2022/08/16 02:31:13;;;;;;;6.30;3.20;;;;;;;19.79;76.70;98001.27;104940;1273;75151;-19
2022/08/16 02:33:41;;;;;;;5.20;3.40;;;;;;;20.14;75.22;97996.57;104843;1274;74405;-18
2022/08/16 02:36:22;;;;;;;7.90;3.60;;;;;;;20.13;74.88;97993.89;104801;1274;61097;-19
2022/08/16 02:39:10;;;;;;;6.30;3.90;;;;;;;19.92;75.29;97997.23;104793;1274;61140;-19
2022/08/16 02:41:38;;;;;;;8.40;3.40;;;;;;;19.74;75.89;98007.52;104708;1277;75592;-19
2022/08/16 02:44:06;;;;;;;6.10;3.00;;;;;;;19.59;76.62;98016.30;104591;1275;76388;-19
2022/08/16 02:46:33;;;;;;;8.70;3.40;;;;;;;19.77;76.37;98019.94;104919;1273;74437;-19
2022/08/16 02:49:03;;;;;;;13.20;3.90;;;;;;;20.21;74.79;98019.40;104779;1274;61168;-19
2022/08/16 02:51:32;;;;;;;3.70;3.30;;;;;;;20.25;74.44;98021.54;104502;1274;62104;-19
2022/08/16 02:54:02;;;;;;;8.40;3.30;;;;;;;20.21;74.60;98021.08;104727;1274;74804;-18
2022/08/16 02:56:29;;;;;;;8.20;4.10;;;;;;;19.89;75.80;98032.16;104640;1274;76118;-19
2022/08/16 02:58:59;;;;;;;9.80;4.70;;;;;;;19.45;77.65;98036.41;104745;1273;74345;-18
2022/08/16 03:01:29;;;;;;;8.00;3.10;;;;;;;19.63;77.36;98031.23;104678;1274;61429;-19
2022/08/16 03:04:09;;;;;;;7.80;4.20;;;;;;;20.01;75.58;98030.81;104616;1274;61960;-19
2022/08/16 03:06:55;;;;;;;4.70;3.50;;;;;;;19.87;76.12;98032.02;104647;1274;75763;-18
2022/08/16 03:09:37;;;;;;;12.40;4.40;;;;;;;19.80;75.56;98027.72;104770;1274;76224;-19
2022/08/16 03:12:04;;;;;;;12.60;6.80;;;;;;;19.56;76.63;98031.83;104757;1274;73311;-19
2022/08/16 03:14:32;;;;;;;22.60;12.70;;;;;;;19.50;77.06;98028.89;104710;1274;62615;-19
2022/08/16 03:17:00;;;;;;;31.40;20.00;;;;;;;19.94;75.98;98030.80;104975;1273;61089;-18
2022/08/16 03:19:36;;;;;;;39.70;22.80;;;;;;;20.33;73.85;98029.13;104906;1273;74757;-19
2022/08/16 03:22:23;;;;;;;35.70;21.90;;;;;;;20.42;73.79;98029.64;104925;1274;75953;-19
2022/08/16 03:25:03;;;;;;;44.70;27.40;;;;;;;20.26;73.84;98024.13;105014;1273;74454;-19
2022/08/16 03:27:37;;;;;;;19.80;11.00;;;;;;;19.92;75.05;98022.68;104709;1276;62048;-19
2022/08/16 03:30:09;;;;;;;16.00;8.20;;;;;;;19.74;75.70;98025.14;104955;1273;61998;-18
2022/08/16 03:32:45;;;;;;;48.60;29.30;;;;;;;20.11;74.84;98024.86;104777;1274;75701;-18
2022/08/16 03:35:15;;;;;;;63.70;34.50;;;;;;;20.58;72.72;98023.02;104931;1273;75796;-19
2022/08/16 03:37:45;;;;;;;136.00;84.60;;;;;;;20.35;73.26;98023.59;104773;1274;74292;-19
2022/08/16 03:40:32;;;;;;;25.30;14.50;;;;;;;19.88;74.95;98026.11;104999;1273;61931;-19
2022/08/16 03:43:04;;;;;;;54.70;30.50;;;;;;;19.69;76.05;98028.86;104685;1275;61068;-18
2022/08/16 03:45:50;;;;;;;24.60;16.20;;;;;;;19.39;77.36;98030.41;104822;1274;75606;-18
2022/08/16 03:48:22;;;;;;;35.90;19.40;;;;;;;19.99;75.41;98040.09;104691;1274;75986;-19
2022/08/16 03:51:09;;;;;;;32.00;19.20;;;;;;;20.52;73.00;98039.38;104807;1274;74574;-19
2022/08/16 03:53:43;;;;;;;41.90;23.10;;;;;;;20.16;73.95;98042.48;104779;1273;62192;-18
2022/08/16 03:56:26;;;;;;;13.70;8.40;;;;;;;20.23;74.01;98046.92;104754;1274;61262;-19
2022/08/16 03:58:55;;;;;;;11.30;7.40;;;;;;;20.10;74.36;98051.14;104810;1273;74862;-19
2022/08/16 04:01:27;;;;;;;;;;;;;;;20.01;74.12;98049.95;104982;1274;75845;-19
2022/08/16 04:03:55;;;;;;;7.60;4.70;;;;;;;19.89;75.01;98051.80;105094;1274;74418;-19
2022/08/16 04:06:22;;;;;;;8.00;4.50;;;;;;;20.51;73.79;98047.27;104984;1274;61166;-19
2022/08/16 04:08:49;;;;;;;9.40;5.20;;;;;;;21.08;71.54;98042.41;105028;1273;61544;-19
2022/08/16 04:11:17;;;;;;;8.70;5.70;;;;;;;21.19;70.71;98037.98;104981;1273;75506;-20
2022/08/16 04:13:44;;;;;;;6.30;5.00;;;;;;;20.99;70.52;98038.16;104973;1273;75798;-19
2022/08/16 04:16:33;;;;;;;11.90;5.40;;;;;;;20.70;71.35;98039.61;105076;1274;74415;-19
2022/08/16 04:19:15;;;;;;;11.90;5.70;;;;;;;20.54;71.86;98035.09;104838;1273;62017;-19
2022/08/16 04:21:42;;;;;;;6.80;4.00;;;;;;;20.42;72.77;98038.30;104738;1274;61115;-19
2022/08/16 04:24:17;;;;;;;10.30;4.20;;;;;;;20.85;72.06;98030.58;104777;1273;75432;-19
2022/08/16 04:26:44;;;;;;;7.00;4.30;;;;;;;21.36;70.86;98033.33;105044;1273;75959;-19
2022/08/16 04:29:14;;;;;;;7.30;4.30;;;;;;;21.51;69.85;98032.27;104973;1274;73212;-19
2022/08/16 04:31:52;;;;;;;6.70;4.20;;;;;;;21.17;70.29;98026.23;104786;1273;62006;-19
2022/08/16 04:34:29;;;;;;;5.50;4.10;;;;;;;21.13;70.84;98024.89;105056;1273;61296;-19
2022/08/16 04:36:57;;;;;;;11.20;5.50;;;;;;;20.72;71.77;98023.52;104795;1274;75745;-18
2022/08/16 04:39:25;;;;;;;10.20;6.10;;;;;;;20.71;72.26;98027.07;105028;1273;75974;-19
2022/08/16 04:42:14;;;;;;;32.50;20.30;;;;;;;20.78;72.54;98024.46;104767;1274;74450;-19
2022/08/16 04:44:42;;;;;;;41.00;26.50;;;;;;;21.24;70.60;98022.57;104846;1273;61069;-19
2022/08/16 04:47:28;;;;;;;17.60;9.90;;;;;;;21.94;67.97;98021.14;103675;1273;1294639;-19
2022/08/16 04:49:58;;;;;;;26.40;18.30;;;;;;;22.28;66.76;98018.27;104624;1274;75664;-19
2022/08/16 04:52:25;;;;;;;25.50;16.50;;;;;;;22.61;66.48;98012.45;104789;1273;76239;-19
2022/08/16 04:55:13;;;;;;;24.60;17.00;;;;;;;22.74;65.68;98012.85;105047;1273;74293;-19
2022/08/16 04:57:42;;;;;;;19.80;14.80;;;;;;;22.77;65.43;98011.66;104470;1274;62066;-19
2022/08/16 05:00:14;;;;;;;9.50;6.70;;;;;;;22.88;65.31;98012.27;104782;1273;61832;-19
2022/08/16 05:03:17;;;;;;;11.20;5.50;;;;;;;23.07;64.82;98012.74;104612;1273;75370;-20
2022/08/16 05:05:47;;;;;;;7.90;4.70;;;;;;;22.70;64.79;98018.88;105030;1273;74704;-19
2022/08/16 05:08:32;;;;;;;10.80;4.70;;;;;;;22.64;65.77;98014.86;105109;1273;74142;-19
2022/08/16 05:11:28;;;;;;;15.80;8.50;;;;;;;22.28;66.53;98024.39;104769;1273;61113;-18
2022/08/16 05:14:00;;;;;;;25.50;10.40;;;;;;;22.41;66.45;98023.04;104398;1273;61177;-19
2022/08/16 05:16:34;;;;;;;54.20;28.10;;;;;;;22.42;66.60;98027.09;104769;1274;75691;-19
2022/08/16 05:19:05;;;;;;;35.20;18.60;;;;;;;22.71;66.13;98023.70;104905;1274;76064;-19
2022/08/16 05:21:39;;;;;;;39.60;19.90;;;;;;;23.44;64.20;98016.75;104793;1273;73317;-19
2022/08/16 05:24:09;;;;;;;10.50;6.80;;;;;;;23.37;62.98;98016.95;104595;1273;61228;-19
2022/08/16 05:26:37;;;;;;;17.20;9.50;;;;;;;22.85;65.07;98019.95;104768;1273;61877;-19
2022/08/16 05:29:10;;;;;;;22.90;14.00;;;;;;;22.69;65.55;98018.37;104682;1273;75201;-18
2022/08/16 05:31:47;;;;;;;9.60;6.20;;;;;;;23.08;64.99;98017.02;104777;1273;75945;-19
2022/08/16 05:34:20;;;;;;;14.40;8.80;;;;;;;23.54;63.56;98013.11;104626;1273;74607;-19
2022/08/16 05:36:49;;;;;;;8.90;4.80;;;;;;;23.78;62.16;98012.20;104827;1274;62094;-19
2022/08/16 05:39:18;;;;;;;15.20;9.00;;;;;;;23.16;63.43;98009.77;105031;1273;62182;-21
2022/08/16 05:41:47;;;;;;;8.50;5.10;;;;;;;22.96;64.25;98009.86;104667;1273;76035;-19
2022/08/16 05:44:15;;;;;;;6.30;4.00;;;;;;;23.15;64.30;98009.27;104900;1273;75445;-19
2022/08/16 05:46:53;;;;;;;6.00;4.00;;;;;;;23.41;63.19;98010.88;104698;1273;73848;-19
2022/08/16 05:49:21;;;;;;;10.00;3.90;;;;;;;23.29;63.39;98015.95;104634;1276;62163;-19
2022/08/16 05:51:53;;;;;;;9.00;4.20;;;;;;;23.19;63.73;98011.15;104836;1273;61093;-19
2022/08/16 05:54:22;;;;;;;21.60;14.70;;;;;;;23.02;64.53;98010.41;105005;1273;75552;-19
2022/08/16 05:56:52;;;;;;;44.80;27.30;;;;;;;22.55;66.40;98007.67;104723;1273;75772;-19
2022/08/16 05:59:19;;;;;;;21.30;13.30;;;;;;;22.69;66.54;98015.02;104542;1274;74520;-19
2022/08/16 06:01:49;;;;;;;8.70;6.70;;;;;;;22.99;65.28;98014.33;104613;1274;61966;-19
2022/08/16 06:04:17;;;;;;;9.90;6.00;;;;;;;22.34;66.19;98016.29;105006;1273;61186;-19
2022/08/16 06:07:10;;;;;;;9.80;5.20;;;;;;;22.41;66.50;98015.19;104979;1273;74699;-18
2022/08/16 06:10:16;;;;;;;4.50;2.70;;;;;;;22.98;64.46;98018.29;104932;1273;75899;-19
2022/08/16 06:13:02;;;;;;;5.80;3.40;;;;;;;23.82;62.59;98018.55;104867;1273;74206;-19
2022/08/16 06:15:30;;;;;;;12.00;3.80;;;;;;;24.08;60.84;98023.16;104772;1274;61147;-19
2022/08/16 06:17:58;;;;;;;11.80;6.20;;;;;;;23.87;61.46;98025.77;104965;1273;62315;-19
2022/08/16 06:20:26;;;;;;;6.30;4.20;;;;;;;24.04;61.44;98027.11;104997;1273;75395;-19
2022/08/16 06:23:16;;;;;;;5.40;4.10;;;;;;;23.99;61.33;98035.36;104684;1273;75956;-19
2022/08/16 06:25:55;;;;;;;9.60;4.30;;;;;;;24.15;61.13;98035.02;104802;1273;73402;-19
2022/08/16 06:28:25;;;;;;;5.40;4.00;;;;;;;24.10;60.80;98034.98;104620;1273;62323;-19
2022/08/16 06:31:05;;;;;;;22.00;10.20;;;;;;;24.18;61.29;98034.39;104831;1273;61206;-19
2022/08/16 06:33:32;;;;;;;9.30;5.10;;;;;;;24.45;61.00;98032.44;104468;1273;74363;-19
2022/08/16 06:36:10;;;;;;;9.40;4.10;;;;;;;24.46;59.22;98031.45;104794;1273;76052;-19
2022/08/16 06:38:38;;;;;;;10.70;4.10;;;;;;;24.44;59.31;98031.63;104733;1273;74229;-19
2022/08/16 06:41:25;;;;;;;11.20;7.00;;;;;;;24.42;59.79;98032.34;104606;1273;61160;-19
2022/08/16 06:43:55;;;;;;;4.60;3.80;;;;;;;24.48;60.02;98029.99;104704;1273;62109;-19
2022/08/16 06:46:33;;;;;;;6.70;3.30;;;;;;;24.64;59.28;98026.70;104839;1273;75462;-19
2022/08/16 06:49:04;;;;;;;7.40;4.00;;;;;;;24.63;58.38;98023.96;104645;1273;75999;-19
2022/08/16 06:51:32;;;;;;;7.40;3.90;;;;;;;24.59;58.05;98023.27;104548;1273;73727;-19
2022/08/16 06:54:13;;;;;;;6.70;4.10;;;;;;;24.92;58.11;98021.73;104883;1273;61164;-19
2022/08/16 06:56:41;;;;;;;7.80;3.80;;;;;;;25.08;57.92;98018.09;105031;1273;62070;-19
2022/08/16 06:59:10;;;;;;;7.00;4.10;;;;;;;25.13;57.17;98013.99;105099;1273;75520;-19
2022/08/16 07:01:44;;;;;;;9.60;5.00;;;;;;;24.96;57.04;98012.75;104743;1273;76095;-19
2022/08/16 07:04:23;;;;;;;20.90;9.70;;;;;;;24.63;57.99;98010.19;105119;1273;74165;-19
2022/08/16 07:07:04;;;;;;;13.40;6.30;;;;;;;24.32;58.88;98010.53;104918;1273;62273;-19
2022/08/16 07:09:32;;;;;;;5.40;4.10;;;;;;;24.74;57.82;98010.41;104757;1273;61749;-19
2022/08/16 07:12:01;;;;;;;6.40;4.40;;;;;;;24.82;58.01;98011.70;104986;1273;75562;-19
2022/08/16 07:14:33;;;;;;;10.10;4.40;;;;;;;25.06;58.01;98016.26;104927;1273;74721;-19
2022/08/16 07:17:03;;;;;;;5.30;4.00;;;;;;;25.18;57.58;98012.90;104861;1273;72262;-19
2022/08/16 07:19:40;;;;;;;5.10;3.80;;;;;;;25.32;56.89;98018.41;104689;1273;62676;-19
2022/08/16 07:22:33;;;;;;;8.60;3.80;;;;;;;25.26;56.86;98020.25;104696;1273;62189;-19
2022/08/16 07:25:12;;;;;;;7.30;4.30;;;;;;;25.33;57.46;98021.09;105090;1273;75541;-19
2022/08/16 07:27:40;;;;;;;8.00;4.00;;;;;;;25.11;57.33;98021.66;104982;1273;76802;-19
2022/08/16 07:30:12;;;;;;;7.50;4.00;;;;;;;25.13;56.94;98021.95;105076;1273;74451;-19
2022/08/16 07:33:01;;;;;;;7.00;4.10;;;;;;;25.05;56.75;98021.90;104728;1273;61154;-19
2022/08/16 07:35:29;;;;;;;10.90;3.90;;;;;;;25.05;57.09;98020.14;105085;1273;62583;-19
2022/08/16 07:37:56;;;;;;;7.00;3.70;;;;;;;24.87;57.00;98021.00;104689;1273;75401;-19
2022/08/16 07:40:28;;;;;;;6.00;3.60;;;;;;;24.88;56.96;98022.23;104636;1273;75032;-19
2022/08/16 07:43:16;;;;;;;4.40;3.40;;;;;;;24.78;57.39;98019.89;104641;1273;73568;-19
2022/08/16 07:45:43;;;;;;;6.60;3.50;;;;;;;24.70;57.78;98017.38;104791;1273;62229;-19
2022/08/16 07:48:19;;;;;;;8.40;5.40;;;;;;;24.76;57.89;98018.52;104598;1273;62031;-19
2022/08/16 07:50:50;;;;;;;9.10;4.80;;;;;;;25.04;57.99;98016.45;104629;1273;74809;-19
2022/08/16 07:53:27;;;;;;;4.50;3.80;;;;;;;25.18;57.39;98009.28;104702;1273;75906;-19
2022/08/16 07:55:56;;;;;;;9.90;3.70;;;;;;;25.28;56.68;98012.55;104917;1273;74925;-19
2022/08/16 07:58:28;;;;;;;6.70;3.90;;;;;;;25.45;57.05;98010.81;104710;1273;62004;-19
2022/08/16 08:01:06;;;;;;;5.20;3.80;;;;;;;25.61;55.72;98017.67;104921;1273;61172;-19
2022/08/16 08:03:48;;;;;;;11.30;4.30;;;;;;;25.52;54.78;98017.48;104813;1273;75649;-19
2022/08/16 08:06:21;;;;;;;10.30;4.60;;;;;;;25.53;55.77;98017.95;104909;1273;76090;-19
2022/08/16 08:08:51;;;;;;;12.40;4.30;;;;;;;25.44;55.23;98015.70;104590;1273;73548;-19
2022/08/16 08:11:27;;;;;;;12.20;6.70;;;;;;;25.21;55.51;98016.89;104632;1273;61153;-19
2022/08/16 08:14:00;;;;;;;7.00;4.50;;;;;;;24.93;56.68;98014.63;104632;1274;62041;-19
2022/08/16 08:16:32;;;;;;;6.50;3.80;;;;;;;24.52;59.83;98004.30;104769;1273;75693;-19
2022/08/16 08:19:03;;;;;;;11.50;3.80;;;;;;;24.33;59.94;98000.34;105027;1273;75031;-19
2022/08/16 08:21:33;;;;;;;16.60;4.70;;;;;;;24.06;62.34;97996.48;104435;1272;74504;-19
2022/08/16 08:24:24;;;;;;;12.30;4.20;;;;;;;24.01;66.35;98004.73;104832;1273;61286;-19
2022/08/16 08:27:00;;;;;;;7.90;3.60;;;;;;;24.20;66.11;98002.92;104953;1273;61166;-19
2022/08/16 08:29:32;;;;;;;11.70;4.20;;;;;;;24.62;64.40;98003.39;105106;1273;75382;-19
2022/08/16 08:32:08;;;;;;;9.80;4.30;;;;;;;24.83;64.15;98009.48;104982;1273;74556;-18
2022/08/16 08:35:00;;;;;;;5.30;3.60;;;;;;;25.06;63.47;98004.54;104907;1273;74475;-19
2022/08/16 08:37:33;;;;;;;7.50;4.80;;;;;;;25.39;61.80;98012.45;104759;1273;62003;-19
2022/08/16 08:40:21;;;;;;;6.80;3.30;;;;;;;25.27;62.47;98022.52;104502;1273;61074;-19
2022/08/16 08:42:57;;;;;;;5.50;4.10;;;;;;;25.54;61.81;98022.77;104614;1273;75597;-19
2022/08/16 08:45:41;;;;;;;12.00;5.20;;;;;;;25.53;61.43;98025.90;104599;1273;74899;-19
2022/08/16 08:48:20;;;;;;;10.50;4.70;;;;;;;25.75;62.05;98033.41;104607;1273;72602;-19
2022/08/16 08:51:08;;;;;;;7.70;4.40;;;;;;;26.00;60.70;98043.59;104696;1273;61050;-19
2022/08/16 08:53:50;;;;;;;11.30;5.40;;;;;;;26.31;58.09;98046.91;104664;1273;61878;-19
2022/08/16 08:56:31;;;;;;;9.10;4.50;;;;;;;26.48;57.16;98048.61;104623;1273;75494;-19
2022/08/16 08:59:05;;;;;;;7.60;3.80;;;;;;;26.67;56.72;98051.64;104805;1273;75251;-19
2022/08/16 09:01:48;;;;;;;5.80;3.60;;;;;;;26.80;55.62;98049.41;104997;1273;74474;-19
2022/08/16 09:04:32;;;;;;;8.80;4.50;;;;;;;26.81;56.91;98047.06;104835;1273;61314;-18
2022/08/16 09:07:02;;;;;;;8.20;4.80;;;;;;;27.06;55.29;98044.73;105059;1273;61882;-18
2022/08/16 09:09:32;;;;;;;7.10;4.10;;;;;;;27.27;54.61;98042.87;104914;1273;75700;-18
2022/08/16 09:12:10;;;;;;;8.50;3.80;;;;;;;27.51;53.87;98036.70;104692;1273;76081;-18
2022/08/16 09:15:02;;;;;;;5.80;3.80;;;;;;;27.76;53.66;98043.75;104781;1273;73272;-18
2022/08/16 09:17:30;;;;;;;6.20;4.50;;;;;;;27.93;52.99;98048.77;104617;1273;62150;-18
2022/08/16 09:20:17;;;;;;;7.40;3.60;;;;;;;28.13;52.21;98049.81;104439;1273;62182;-18
2022/08/16 09:22:46;;;;;;;11.70;4.60;;;;;;;28.06;51.55;98051.54;104618;1273;75618;-18
2022/08/16 09:25:22;;;;;;;8.60;4.20;;;;;;;28.26;51.58;98058.39;104582;1273;75914;-18
2022/08/16 09:28:01;;;;;;;7.10;3.80;;;;;;;28.34;51.22;98062.30;104951;1273;74629;-18
2022/08/16 09:30:35;;;;;;;11.60;4.10;;;;;;;28.35;50.27;98052.95;104695;1273;62088;-18
2022/08/16 09:33:10;;;;;;;9.10;4.10;;;;;;;28.32;50.83;98056.59;104875;1273;61245;-18
2022/08/16 09:35:38;;;;;;;6.00;3.80;;;;;;;28.58;50.39;98055.30;104852;1272;75524;-19
2022/08/16 09:38:11;;;;;;;7.10;3.50;;;;;;;28.92;48.86;98050.39;104926;1273;75963;-19
2022/08/16 09:40:40;;;;;;;5.90;3.50;;;;;;;29.32;48.19;98048.66;104750;1273;74412;-19
2022/08/16 09:43:11;;;;;;;5.40;3.20;;;;;;;29.59;46.36;98051.52;104607;1273;62177;-18
2022/08/16 09:45:59;;;;;;;6.30;3.40;;;;;;;29.75;45.94;98040.02;104435;1273;61193;-18
2022/08/16 09:48:27;;;;;;;4.10;3.40;;;;;;;30.08;45.92;98040.45;104635;1273;75743;-18
2022/08/16 09:51:14;;;;;;;8.60;3.70;;;;;;;30.45;44.64;98033.70;105019;1273;76185;-18
2022/08/16 09:53:41;;;;;;;8.80;3.60;;;;;;;30.73;44.81;98032.64;104749;1273;74494;-19
2022/08/16 09:56:16;;;;;;;7.90;3.50;;;;;;;30.64;43.44;98045.27;104651;1273;61805;-18
2022/08/16 09:58:44;;;;;;;7.50;3.50;;;;;;;30.11;43.87;98042.58;104718;1273;61884;-18
2022/08/16 10:01:32;;;;;;;6.60;3.80;;;;;;;29.29;45.47;98046.16;104648;1273;75302;-18
2022/08/16 10:03:59;;;;;;;9.10;3.50;;;;;;;29.20;46.61;98048.14;104489;1273;75089;-18
2022/08/16 10:06:29;;;;;;;7.70;4.40;;;;;;;29.29;45.34;98043.89;104666;1273;74570;-18
2022/08/16 10:09:04;;;;;;;8.50;4.20;;;;;;;28.80;46.60;98049.75;104862;1273;62482;-18
2022/08/16 10:14:22;;;;;;;6.20;4.00;;;;;;;29.81;45.81;98038.92;104838;1273;75826;-18
2022/08/16 10:16:52;;;;;;;10.00;4.40;;;;;;;30.36;45.00;98032.70;104992;1273;75904;-18
2022/08/16 10:19:28;;;;;;;6.20;4.00;;;;;;;30.20;44.89;98032.30;105151;1273;74555;-19
2022/08/16 10:21:58;;;;;;;8.10;3.70;;;;;;;30.12;45.14;98028.58;104959;1273;61311;-18
2022/08/16 10:24:32;;;;;;;9.10;4.20;;;;;;;29.84;44.97;98033.44;104978;1273;61124;-18
2022/08/16 10:26:59;;;;;;;8.90;3.90;;;;;;;29.48;45.48;98037.30;104862;1273;75319;-18
2022/08/16 10:29:46;;;;;;;9.40;5.20;;;;;;;29.40;45.67;98039.41;105065;1273;76022;-18
2022/08/16 10:32:32;;;;;;;12.30;4.30;;;;;;;29.66;45.67;98034.38;104664;1273;74279;-18
2022/08/16 10:35:02;;;;;;;8.50;5.10;;;;;;;29.70;45.81;98034.04;104692;1273;62034;-18
2022/08/16 10:37:30;;;;;;;9.90;5.10;;;;;;;29.63;45.79;98033.42;104617;1273;61072;-18
2022/08/16 10:40:05;;;;;;;11.60;4.80;;;;;;;29.90;45.40;98026.00;104814;1273;74690;-18
2022/08/16 10:42:52;;;;;;;5.50;4.30;;;;;;;29.80;45.61;98025.30;104600;1273;76098;-18
2022/08/16 10:45:20;;;;;;;5.60;4.40;;;;;;;29.63;45.78;98029.10;104773;1273;73674;-18
2022/08/16 10:47:49;;;;;;;5.60;4.20;;;;;;;29.73;45.85;98024.38;104768;1273;62354;-18
2022/08/16 10:50:31;;;;;;;9.60;4.20;;;;;;;30.08;45.53;98023.28;104904;1273;61931;-18
2022/08/16 10:52:58;;;;;;;4.70;3.90;;;;;;;30.08;44.84;98027.41;105140;1273;75485;-18
2022/08/16 10:55:26;;;;;;;5.60;4.10;;;;;;;29.58;45.70;98031.83;104889;1273;76148;-21
2022/08/16 10:58:12;;;;;;;8.00;4.30;;;;;;;28.91;47.47;98036.63;104811;1273;74538;-18
2022/08/16 11:00:43;;;;;;;6.80;4.30;;;;;;;28.75;47.68;98037.11;104440;1273;62058;-18
2022/08/16 11:03:12;;;;;;;5.40;4.20;;;;;;;28.45;48.26;98036.57;104987;1273;61227;-18
2022/08/16 11:06:00;;;;;;;6.90;4.60;;;;;;;27.75;49.63;98029.10;104956;1273;75644;-18
2022/08/16 11:08:37;;;;;;;6.90;4.80;;;;;;;27.52;50.57;98032.73;104837;1273;74980;-18
2022/08/16 11:11:13;;;;;;;8.80;4.60;;;;;;;27.52;50.45;98032.16;104909;1273;74643;-18
2022/08/16 11:13:47;;;;;;;6.40;4.20;;;;;;;27.69;50.85;98036.88;104944;1273;61103;-18
2022/08/16 11:16:34;;;;;;;9.30;4.20;;;;;;;27.95;50.50;98035.04;104974;1273;61037;-18
2022/08/16 11:19:22;;;;;;;7.70;4.60;;;;;;;28.20;50.05;98036.73;105105;1273;75535;-18
2022/08/16 11:21:49;;;;;;;8.80;4.10;;;;;;;28.11;49.77;98039.90;105022;1273;75919;-18
2022/08/16 11:24:39;;;;;;;5.20;4.40;;;;;;;27.87;49.99;98039.88;104957;1273;74465;-18
2022/08/16 11:27:13;;;;;;;6.00;4.50;;;;;;;27.64;50.64;98041.14;105096;1272;61063;-18
2022/08/16 11:29:52;;;;;;;9.70;4.50;;;;;;;27.35;50.97;98040.57;104796;1273;61051;-18
2022/08/16 11:32:24;;;;;;;12.80;5.20;;;;;;;27.63;51.11;98036.21;104803;1273;75986;-18
2022/08/16 11:35:02;;;;;;;11.00;4.70;;;;;;;28.19;50.14;98036.48;104784;1273;76064;-18
2022/08/16 11:37:54;;;;;;;9.90;4.20;;;;;;;28.79;47.76;98034.05;104761;1273;72491;-18
2022/08/16 11:40:49;;;;;;;7.60;4.90;;;;;;;28.75;47.85;98027.70;104953;1273;61043;-18
2022/08/16 11:43:22;;;;;;;12.30;4.10;;;;;;;28.96;49.38;98022.52;104821;1273;62232;-18
2022/08/16 11:45:49;;;;;;;7.60;4.20;;;;;;;29.28;47.87;98018.27;104800;1273;74431;-18
2022/08/16 11:48:23;;;;;;;8.30;4.90;;;;;;;29.14;46.90;98013.91;104978;1273;76114;-18
2022/08/16 11:50:50;;;;;;;8.90;5.00;;;;;;;28.90;47.92;98013.85;104646;1273;73443;-18
2022/08/16 11:53:18;;;;;;;6.20;4.60;;;;;;;28.61;48.61;98010.65;104710;1273;61171;-18
2022/08/16 11:55:45;;;;;;;7.30;4.40;;;;;;;28.52;48.22;98010.83;104915;1273;61915;-18
2022/08/16 11:58:17;;;;;;;8.30;4.90;;;;;;;28.51;47.99;98003.38;105020;1273;75331;-18
2022/08/16 12:00:46;;;;;;;10.80;5.20;;;;;;;28.76;48.28;98004.33;104956;1273;76145;-18